Kailua Kona, HI (96740)

11:56 AM HST on February 20, 2017 (GMT -1000)
Kawena Place | | Change Station
Active Advisory: Small Craft Advisory

Elev 387 ft 19.64 °N, 155.98 °W | Updated 36 seconds ago

Partly Cloudy
Partly Cloudy
75.9 °F
Feels Like 77 °F
N
6.0
Wind Variable Wind from WSW

Today
High -- | Low -- °F
--% Chance of Precip.
Yesterday
High -- | Low -- °F
Precip. -- in
Pressure 30.12 in
Visibility 10.0 miles
Clouds Mostly Cloudy 3200 ft
Mostly Cloudy 4200 ft
Heat Index 77 °F
Dew Point 66 °F
Humidity 73%
Rainfall 0.00 in
Snow Depth Not available.
6:49 AM 6:25 PM
Waning Crescent, 31% visible
METAR PHKO 202153Z 21011KT 10SM BKN032 BKN042 27/18 A3012 RMK AO2 SLP200 T02670183
Pressure 30.12 in
Visibility 10.0 miles
Clouds Mostly Cloudy 3200 ft
Mostly Cloudy 4200 ft
Heat Index 77 °F
Dew Point 66 °F
Humidity 73%
Rainfall 0.00 in
Snow Depth Not available.
6:49 AM 6:25 PM
Waning Crescent, 31% visible
METAR PHKO 202153Z 21011KT 10SM BKN032 BKN042 27/18 A3012 RMK AO2 SLP200 T02670183

Get Your Daily Forecast Email!

Thanks for signing up!

Be on the lookout for a verification email in your inbox.

You'll start receiving the daily forecast at 8 AM.

×

10-Day Weather Forecast

Almanac

Astronomy

Feb. 20, 2017 Rise Set
Actual Time
Civil Twilight
Nautical Twilight
Astronomical Twilight
Moon
Length of Visible Light
Length of Day
Tomorrow will be .
, % of the Moon is Illuminated

Today's Extremes

State Highs State Lows

Community

WunderPhotos

Upload Photos

1,962,540 photos uploaded!

WunderBlog® & News

Nearby

Air Quality

  Air Quality AQ Index Pollutant
Not available.

Snow Depth

Station Depth Elevation

Earthquake Activity

City Distance Mag. Time & Date
Minimum magnitude displayed is 2.5.

Coastal Water Temperatures

Place Temperature

Stations

Nearby Weather Stations

Station Location Temp. Windchill Dew Point Humidity Wind Precip. Elev Updated Type
                   

Watches & Warnings

Small Craft Advisory
Issued: 3:28 AM HST Feb. 20, 2017 – National Weather Service

... Small Craft Advisory now in effect until 6 PM HST Tuesday...

* winds and seas... northeast to east winds 25 to 30 kt. Seas 8 to
12 ft.

Precautionary/preparedness actions...

A Small Craft Advisory means that winds speeds of 25 to 33 knots
and/or seas 10 feet or greater are expected to produce conditions
hazardous to small craft. Inexperienced mariners... especially
those operating smaller vessels... should avoid navigating in
these conditions.